Alamogordo White Sands Regional Airport
KALM : now visible

Airfield :











YOU CAN JOIN US ON...

 
LOGIN :

Register | Disclaimer

   EN    FR    IT 

 









Legend :    VFR   Marginal VFR   IFR   Intensive IFR   Very Intensive IFR
Visi :
Ceiling :
>= 8 km
>= 3000ft
5 to 8 km
1000 to 3000 ft
1500m to 5 km
500 to 1000 ft
800 to 1500m
200 to 500 ft
< 800m
< 200 ft
Symbols :   Thunderstorms  Fog  Heavy snow  Heavy precipitations  Wind > 20 kt






- Airport Elevation : 4200 ft
- IATA code : ALM


KALM - Alamogordo White Sands Regional

CURRENT METAR :
  • 071435Z AUTO 00000KT 10SM SCT080 SCT090 BKN120 14/13 A3034 RMK AO2

EXPIRED METARs :
  • 071415Z AUTO 00000KT 10SM BKN085 OVC110 15/14 A3033 RMK AO2
  • 071355Z AUTO 02004KT 10SM FEW060 FEW070 OVC080 13/13 A3033 RMK AO2
  • 071335Z AUTO 02004KT 10SM FEW037 BKN060 OVC080 12/12 A3033 RMK AO2
  • 071315Z AUTO 00000KT 7SM -RA FEW036 BKN080 OVC100 11/11 A3033 RMK AO2
  • 071255Z AUTO 23003KT 10SM FEW050 BKN075 OVC090 11/11 A3032 RMK AO2
  • 071235Z AUTO 00000KT 10SM BKN070 OVC080 11/11 A3032 RMK AO2
  • 071215Z AUTO 00000KT 8SM BKN070 OVC080 11/10 A3032 RMK AO2
  • 071155Z AUTO 00000KT 10SM FEW050 OVC070 11/11 A3031 RMK AO2

TAF N/A
KZAB FIR / North America



MET'MAP, your aeronautical weather chart ! - Copyright ORBIFLY December 2007 - Disclaimer

ORBIFLY MET'MAP TEAM :

Programming & Development : Alexandra Zaïnal
Original concept : Baudouin d'Aumeries
Technical & hardware support : Manuel Goepfert
Assistance : Marc-Olivier Méhu




SOURCES & CREDITS :

   NOAA       Earth
Advisory